Time;durP1;ratioP1;P1;durP2;ratioP2;P2;SDS_P1;SDS_P2;PMS_P1;PMS_P2;Temp;Humidity;BMP_temperature;BMP_pressure;BME280_temperature;BME280_humidity;BME280_pressure;Samples;Min_cycle;Max_cycle;Signal;HPM_P1;HPM_P2
2023/07/19 00:00:38;;;;;;;3.63;2.20;;;;;;;;;;4949016;28;98926;-77
2023/07/19 00:03:05;;;;;;;4.22;2.55;;;;;;;;;;4939633;28;98944;-76
2023/07/19 00:05:31;;;;;;;10.25;2.67;;;;;;;;;;4930859;28;99300;-76
2023/07/19 00:07:58;;;;;;;3.38;2.65;;;;;;;;;;4929474;28;99709;-77
2023/07/19 00:10:24;;;;;;;3.15;2.80;;;;;;;;;;4933769;28;98225;-78
2023/07/19 00:12:51;;;;;;;3.60;2.33;;;;;;;;;;4929784;28;100377;-77
2023/07/19 00:15:23;;;;;;;8.10;2.43;;;;;;;;;;4929991;28;98384;-77
2023/07/19 00:17:49;;;;;;;9.27;2.53;;;;;;;;;;4930473;28;99466;-77
2023/07/19 00:20:16;;;;;;;4.22;2.55;;;;;;;;;;4930407;28;100000;-78
2023/07/19 00:22:42;;;;;;;4.93;2.85;;;;;;;;;;4929918;28;98265;-77
2023/07/19 00:25:09;;;;;;;4.65;2.47;;;;;;;;;;4926336;28;99125;-77
2023/07/19 00:27:35;;;;;;;3.38;2.58;;;;;;;;;;4929547;28;98867;-76
2023/07/19 00:30:02;;;;;;;4.22;2.45;;;;;;;;;;4929713;28;98231;-78
2023/07/19 00:32:29;;;;;;;2.22;2.03;;;;;;;;;;4932389;28;101341;-76
2023/07/19 00:34:55;;;;;;;6.63;2.40;;;;;;;;;;4930309;28;98318;-76
2023/07/19 00:37:22;;;;;;;6.40;2.72;;;;;;;;;;4931912;28;100805;-77
2023/07/19 00:39:48;;;;;;;4.15;2.75;;;;;;;;;;4933635;28;98703;-77
2023/07/19 00:42:15;;;;;;;7.13;2.65;;;;;;;;;;4931111;28;98639;-76
2023/07/19 00:44:42;;;;;;;3.65;3.15;;;;;;;;;;4933623;28;98320;-77
2023/07/19 00:47:08;;;;;;;4.03;2.65;;;;;;;;;;4933572;28;98743;-76
2023/07/19 00:49:35;;;;;;;5.80;2.63;;;;;;;;;;4937212;28;98850;-76
2023/07/19 00:52:02;;;;;;;7.40;2.92;;;;;;;;;;4936382;28;99425;-76
2023/07/19 00:54:29;;;;;;;7.55;3.35;;;;;;;;;;4936515;28;99956;-77
2023/07/19 00:56:56;;;;;;;3.95;2.40;;;;;;;;;;4931564;28;99531;-77
2023/07/19 00:59:26;;;;;;;8.48;2.90;;;;;;;;;;4932498;28;99366;-77
2023/07/19 01:01:52;;;;;;;5.68;2.90;;;;;;;;;;4927706;28;98251;-77
2023/07/19 01:04:19;;;;;;;4.03;2.30;;;;;;;;;;4927130;28;98213;-76
2023/07/19 01:06:45;;;;;;;4.68;2.63;;;;;;;;;;4931857;28;101746;-78
2023/07/19 01:09:13;;;;;;;3.53;2.70;;;;;;;;;;4932679;28;97921;-78
2023/07/19 01:11:39;;;;;;;6.82;2.80;;;;;;;;;;4947324;28;99558;-77
2023/07/19 01:14:07;;;;;;;4.45;2.67;;;;;;;;;;4933389;28;99248;-77
2023/07/19 01:16:34;;;;;;;8.07;2.67;;;;;;;;;;4936237;28;98067;-77
2023/07/19 01:19:02;;;;;;;4.45;3.33;;;;;;;;;;4932549;28;99008;-76
2023/07/19 01:21:29;;;;;;;4.20;2.50;;;;;;;;;;4932764;28;98344;-77
2023/07/19 01:23:56;;;;;;;2.45;2.22;;;;;;;;;;4933643;28;99747;-77
2023/07/19 01:26:22;;;;;;;6.10;2.47;;;;;;;;;;4936883;28;97975;-76
2023/07/19 01:28:49;;;;;;;2.13;1.90;;;;;;;;;;4938673;28;98376;-76
2023/07/19 01:31:16;;;;;;;5.35;2.17;;;;;;;;;;4938858;28;98335;-76
2023/07/19 01:33:43;;;;;;;3.72;2.15;;;;;;;;;;4932253;28;98973;-77
2023/07/19 01:36:10;;;;;;;2.72;1.80;;;;;;;;;;4934495;28;98217;-77
2023/07/19 01:38:41;;;;;;;6.57;2.55;;;;;;;;;;4929972;28;100161;-77
2023/07/19 01:41:07;;;;;;;3.95;1.92;;;;;;;;;;4933256;28;98248;-77
2023/07/19 01:43:35;;;;;;;3.30;2.00;;;;;;;;;;4933093;28;98203;-78
2023/07/19 01:46:01;;;;;;;4.25;1.92;;;;;;;;;;4931262;28;99344;-77
2023/07/19 01:48:28;;;;;;;2.33;1.98;;;;;;;;;;4932304;28;98798;-77
2023/07/19 01:50:54;;;;;;;4.80;1.70;;;;;;;;;;4931784;28;99481;-77
2023/07/19 01:53:21;;;;;;;3.95;1.70;;;;;;;;;;4931428;28;99343;-78
2023/07/19 01:55:47;;;;;;;4.10;2.33;;;;;;;;;;4932816;28;98264;-76
2023/07/19 01:58:14;;;;;;;2.08;1.80;;;;;;;;;;4934442;28;101450;-78
2023/07/19 02:00:41;;;;;;;1.90;1.77;;;;;;;;;;4927077;28;98276;-76
2023/07/19 02:03:07;;;;;;;1.90;1.80;;;;;;;;;;4917473;28;99294;-78
2023/07/19 02:05:37;;;;;;;2.33;2.05;;;;;;;;;;4931117;28;99982;-77
2023/07/19 02:08:04;;;;;;;2.33;1.80;;;;;;;;;;4930122;28;98366;-77
2023/07/19 02:10:34;;;;;;;3.10;1.73;;;;;;;;;;4932184;28;99911;-77
2023/07/19 02:13:00;;;;;;;5.95;1.77;;;;;;;;;;4931841;28;98735;-77
2023/07/19 02:15:27;;;;;;;3.70;2.13;;;;;;;;;;4931553;28;98341;-77
2023/07/19 02:17:57;;;;;;;2.63;1.85;;;;;;;;;;4931834;28;99779;-76
2023/07/19 02:20:25;;;;;;;3.20;1.77;;;;;;;;;;4935004;28;99065;-77
2023/07/19 02:22:52;;;;;;;5.35;2.10;;;;;;;;;;4931292;28;98338;-76
2023/07/19 02:25:18;;;;;;;2.20;2.10;;;;;;;;;;4924677;28;99987;-76
2023/07/19 02:27:45;;;;;;;4.15;1.90;;;;;;;;;;4911609;28;98421;-76
2023/07/19 02:30:12;;;;;;;3.08;1.92;;;;;;;;;;4911233;28;100947;-77
2023/07/19 02:32:39;;;;;;;6.00;2.35;;;;;;;;;;4928547;28;99885;-76
2023/07/19 02:35:06;;;;;;;3.95;2.22;;;;;;;;;;4931339;28;97960;-78
2023/07/19 02:37:32;;;;;;;2.20;2.00;;;;;;;;;;4931746;28;98273;-76
2023/07/19 02:40:01;;;;;;;8.35;2.60;;;;;;;;;;4929200;28;101310;-78
2023/07/19 02:42:30;;;;;;;3.45;3.15;;;;;;;;;;4949206;28;98473;-77
2023/07/19 02:44:57;;;;;;;4.82;2.47;;;;;;;;;;4931891;28;98928;-78
2023/07/19 02:47:23;;;;;;;4.80;2.38;;;;;;;;;;4931846;28;98196;-77
2023/07/19 02:49:51;;;;;;;1.98;1.83;;;;;;;;;;4946585;28;99342;-75
2023/07/19 02:52:17;;;;;;;9.45;1.95;;;;;;;;;;4930123;28;100013;-76
2023/07/19 02:54:44;;;;;;;3.10;2.20;;;;;;;;;;4931605;28;98284;-77
2023/07/19 02:57:10;;;;;;;2.35;2.20;;;;;;;;;;4931044;28;98722;-77
2023/07/19 02:59:37;;;;;;;7.88;2.55;;;;;;;;;;4930254;28;98890;-77
2023/07/19 03:02:03;;;;;;;3.08;2.60;;;;;;;;;;4931815;28;98212;-77
2023/07/19 03:04:30;;;;;;;2.38;1.90;;;;;;;;;;4933047;28;98404;-76
2023/07/19 03:06:57;;;;;;;5.15;2.40;;;;;;;;;;4930356;28;98423;-76
2023/07/19 03:09:24;;;;;;;5.00;2.28;;;;;;;;;;4930800;28;99427;-76
2023/07/19 03:11:51;;;;;;;3.20;2.53;;;;;;;;;;4929194;28;99054;-77
2023/07/19 03:14:18;;;;;;;2.85;2.35;;;;;;;;;;4930928;28;98259;-76
2023/07/19 03:16:50;;;;;;;3.15;2.20;;;;;;;;;;4931726;28;98473;-76
2023/07/19 03:19:19;;;;;;;4.47;2.00;;;;;;;;;;4929258;28;100197;-76
2023/07/19 03:21:46;;;;;;;2.72;2.00;;;;;;;;;;4929829;28;98475;-77
2023/07/19 03:24:13;;;;;;;5.75;2.10;;;;;;;;;;4944222;28;99794;-77
2023/07/19 03:26:40;;;;;;;10.05;2.08;;;;;;;;;;4934221;28;98206;-76
2023/07/19 03:29:06;;;;;;;6.97;2.30;;;;;;;;;;4929153;28;99683;-76
2023/07/19 03:31:35;;;;;;;1.83;1.73;;;;;;;;;;4928465;28;100900;-77
2023/07/19 03:34:02;;;;;;;6.57;2.03;;;;;;;;;;4931478;28;98073;-77
2023/07/19 03:36:29;;;;;;;2.75;2.38;;;;;;;;;;4930517;28;98418;-76
2023/07/19 03:38:55;;;;;;;8.57;2.15;;;;;;;;;;4930424;28;99060;-77
2023/07/19 03:41:23;;;;;;;3.72;2.15;;;;;;;;;;4928916;28;98240;-76
2023/07/19 03:43:50;;;;;;;2.67;2.38;;;;;;;;;;4930441;28;100283;-77
2023/07/19 03:46:19;;;;;;;2.20;1.90;;;;;;;;;;4934405;28;98909;-77
2023/07/19 03:48:47;;;;;;;6.88;2.10;;;;;;;;;;4946915;28;101310;-78
2023/07/19 03:51:14;;;;;;;2.88;2.28;;;;;;;;;;4945117;28;99666;-77
2023/07/19 03:53:40;;;;;;;5.03;2.33;;;;;;;;;;4952593;28;97553;-76
2023/07/19 03:56:08;;;;;;;3.70;2.42;;;;;;;;;;4955264;28;97593;-78
2023/07/19 03:58:35;;;;;;;2.50;2.30;;;;;;;;;;4955878;28;99632;-78
2023/07/19 04:01:03;;;;;;;4.85;2.42;;;;;;;;;;4945536;28;98192;-76
2023/07/19 04:03:29;;;;;;;2.78;2.50;;;;;;;;;;4952563;28;99035;-77
2023/07/19 04:05:57;;;;;;;2.80;2.60;;;;;;;;;;4939446;28;99138;-78
2023/07/19 04:08:24;;;;;;;6.05;2.53;;;;;;;;;;4935078;28;98328;-76
2023/07/19 04:10:51;;;;;;;6.97;2.60;;;;;;;;;;4930265;28;101609;-78
2023/07/19 04:13:17;;;;;;;4.05;2.35;;;;;;;;;;4930252;28;98265;-77
2023/07/19 04:15:44;;;;;;;5.82;2.30;;;;;;;;;;4930626;28;100792;-77
2023/07/19 04:18:11;;;;;;;2.38;2.00;;;;;;;;;;4930164;28;98965;-78
2023/07/19 04:20:37;;;;;;;7.63;2.70;;;;;;;;;;4928608;28;98090;-77
2023/07/19 04:23:05;;;;;;;3.58;2.60;;;;;;;;;;4926088;28;100988;-77
2023/07/19 04:25:33;;;;;;;9.70;2.67;;;;;;;;;;4910695;28;101089;-78
2023/07/19 04:28:01;;;;;;;3.60;2.47;;;;;;;;;;4923653;28;98296;-76
2023/07/19 04:30:27;;;;;;;2.85;2.50;;;;;;;;;;4920424;28;98488;-76
2023/07/19 04:32:55;;;;;;;5.45;2.70;;;;;;;;;;4929007;28;98350;-78
2023/07/19 04:35:22;;;;;;;6.53;2.70;;;;;;;;;;4929646;28;99345;-76
2023/07/19 04:37:52;;;;;;;4.43;2.83;;;;;;;;;;4928959;28;101914;-77
2023/07/19 04:40:18;;;;;;;7.28;2.50;;;;;;;;;;4929236;28;98331;-76
2023/07/19 04:42:45;;;;;;;6.68;2.88;;;;;;;;;;4927749;28;100204;-76
2023/07/19 04:45:13;;;;;;;2.85;2.65;;;;;;;;;;4928338;28;103486;-77
2023/07/19 04:47:42;;;;;;;4.25;2.60;;;;;;;;;;4935876;28;98281;-77
2023/07/19 04:50:09;;;;;;;5.88;2.80;;;;;;;;;;4948776;28;99729;-76
2023/07/19 04:52:36;;;;;;;4.50;3.35;;;;;;;;;;4948312;28;99757;-76
2023/07/19 04:55:03;;;;;;;5.93;3.53;;;;;;;;;;4914292;28;101161;-78
2023/07/19 04:57:31;;;;;;;6.72;3.25;;;;;;;;;;4936210;28;100799;-77
2023/07/19 04:59:58;;;;;;;3.33;3.03;;;;;;;;;;4930456;28;98184;-76
2023/07/19 05:02:24;;;;;;;3.03;2.60;;;;;;;;;;4925153;28;98555;-77
2023/07/19 05:04:51;;;;;;;7.88;2.95;;;;;;;;;;4938595;28;99445;-76
2023/07/19 05:07:19;;;;;;;5.07;3.15;;;;;;;;;;4927281;28;98299;-77
2023/07/19 05:09:45;;;;;;;11.40;3.17;;;;;;;;;;4929623;28;98072;-76
2023/07/19 05:12:12;;;;;;;3.58;2.97;;;;;;;;;;4930123;28;98786;-76
2023/07/19 05:14:38;;;;;;;6.43;2.75;;;;;;;;;;4934460;28;98104;-76
2023/07/19 05:17:06;;;;;;;4.82;3.53;;;;;;;;;;4929004;28;98979;-77
2023/07/19 05:19:32;;;;;;;4.10;2.85;;;;;;;;;;4929556;28;98289;-77
2023/07/19 05:21:59;;;;;;;4.88;3.63;;;;;;;;;;4931419;28;99805;-78
2023/07/19 05:24:26;;;;;;;5.10;3.30;;;;;;;;;;4931788;28;99213;-79
2023/07/19 05:26:53;;;;;;;9.20;2.35;;;;;;;;;;4951289;28;98215;-78
2023/07/19 05:29:19;;;;;;;6.40;3.00;;;;;;;;;;4934080;28;99530;-78
2023/07/19 05:31:45;;;;;;;6.75;2.50;;;;;;;;;;4931339;28;100144;-78
2023/07/19 05:34:12;;;;;;;5.05;2.75;;;;;;;;;;4935691;28;98267;-78
2023/07/19 05:36:38;;;;;;;5.20;3.25;;;;;;;;;;4932880;28;100144;-77
2023/07/19 05:39:05;;;;;;;10.07;3.30;;;;;;;;;;4932692;28;98270;-78
2023/07/19 05:41:31;;;;;;;4.22;2.40;;;;;;;;;;4932272;28;98619;-79
2023/07/19 05:43:58;;;;;;;8.77;3.30;;;;;;;;;;4932754;28;98984;-78
2023/07/19 05:46:38;;;;;;;2.35;2.08;;;;;;;;;;4933925;28;98268;-79
2023/07/19 05:49:05;;;;;;;6.47;3.03;;;;;;;;;;4937754;28;98667;-79
2023/07/19 05:51:32;;;;;;;3.15;2.78;;;;;;;;;;4937064;28;99263;-79
2023/07/19 05:53:58;;;;;;;6.35;3.03;;;;;;;;;;4931666;28;98851;-79
2023/07/19 05:56:25;;;;;;;6.13;3.50;;;;;;;;;;4947490;28;99556;-78
2023/07/19 05:58:51;;;;;;;8.30;2.72;;;;;;;;;;4935294;28;98322;-80
2023/07/19 06:01:19;;;;;;;4.55;3.40;;;;;;;;;;4932125;28;99434;-82
2023/07/19 06:03:47;;;;;;;3.72;2.58;;;;;;;;;;4931456;28;99771;-80
2023/07/19 06:06:15;;;;;;;6.15;2.45;;;;;;;;;;4929436;28;98271;-81
2023/07/19 06:08:41;;;;;;;6.13;2.80;;;;;;;;;;4932000;28;99862;-81
2023/07/19 06:11:07;;;;;;;3.33;2.63;;;;;;;;;;4932682;28;100061;-81
2023/07/19 06:13:34;;;;;;;3.80;2.78;;;;;;;;;;4944040;28;98653;-81
2023/07/19 06:16:00;;;;;;;6.18;2.55;;;;;;;;;;4932485;28;99325;-80
2023/07/19 06:18:28;;;;;;;9.98;3.08;;;;;;;;;;4934409;28;100034;-80
2023/07/19 06:20:54;;;;;;;2.55;2.22;;;;;;;;;;4928848;28;99298;-80
2023/07/19 06:23:21;;;;;;;3.78;2.55;;;;;;;;;;4931919;28;100375;-81
2023/07/19 06:25:48;;;;;;;8.85;2.33;;;;;;;;;;4935185;28;98799;-80
2023/07/19 06:28:15;;;;;;;3.83;1.92;;;;;;;;;;4922680;28;99476;-80
2023/07/19 06:30:43;;;;;;;2.15;1.90;;;;;;;;;;4932989;28;98895;-81
2023/07/19 06:33:09;;;;;;;5.68;1.95;;;;;;;;;;4932398;28;98230;-80
2023/07/19 06:35:36;;;;;;;2.75;1.58;;;;;;;;;;4930979;28;99474;-80
2023/07/19 06:38:02;;;;;;;3.15;1.88;;;;;;;;;;4930692;28;100373;-81
2023/07/19 06:40:29;;;;;;;3.03;1.85;;;;;;;;;;4932887;28;98140;-81
2023/07/19 06:42:56;;;;;;;2.70;1.83;;;;;;;;;;4932239;28;100145;-83
2023/07/19 06:45:22;;;;;;;3.33;1.52;;;;;;;;;;4928986;28;98275;-81
2023/07/19 06:47:49;;;;;;;2.70;1.27;;;;;;;;;;4932862;28;99068;-81
2023/07/19 06:50:16;;;;;;;3.30;1.33;;;;;;;;;;4930899;28;100282;-80
2023/07/19 06:52:42;;;;;;;1.23;1.10;;;;;;;;;;4931899;28;98352;-81
2023/07/19 06:55:09;;;;;;;4.20;1.35;;;;;;;;;;4931563;28;98478;-81
2023/07/19 06:57:35;;;;;;;7.13;1.35;;;;;;;;;;4946277;28;102034;-82
2023/07/19 07:00:03;;;;;;;2.20;1.52;;;;;;;;;;4929628;28;98913;-82
2023/07/19 07:02:29;;;;;;;2.85;1.30;;;;;;;;;;4933177;28;98735;-83
2023/07/19 07:04:56;;;;;;;3.20;1.17;;;;;;;;;;4932516;28;99087;-82
2023/07/19 07:07:22;;;;;;;2.78;1.45;;;;;;;;;;4931042;28;99487;-81
2023/07/19 07:09:49;;;;;;;3.92;1.27;;;;;;;;;;4924633;28;99090;-80
2023/07/19 07:12:15;;;;;;;2.22;0.88;;;;;;;;;;4926057;28;98281;-81
2023/07/19 07:14:42;;;;;;;2.75;1.13;;;;;;;;;;4931712;28;98577;-83
2023/07/19 07:17:09;;;;;;;3.13;1.35;;;;;;;;;;4933170;28;99831;-82
2023/07/19 07:19:36;;;;;;;3.25;1.67;;;;;;;;;;4929659;28;98665;-82
2023/07/19 07:22:03;;;;;;;6.25;1.00;;;;;;;;;;4926237;28;99272;-82
2023/07/19 07:24:30;;;;;;;3.50;1.20;;;;;;;;;;4919245;28;99932;-82
2023/07/19 07:26:56;;;;;;;9.73;1.75;;;;;;;;;;4932359;28;99475;-81
2023/07/19 07:29:22;;;;;;;3.60;1.00;;;;;;;;;;4923610;28;99053;-81
2023/07/19 07:31:49;;;;;;;3.53;1.30;;;;;;;;;;4911738;28;98187;-81
2023/07/19 07:34:16;;;;;;;6.18;1.00;;;;;;;;;;4926141;28;100043;-79
2023/07/19 07:36:43;;;;;;;2.15;1.30;;;;;;;;;;4927941;28;98916;-80
2023/07/19 07:39:11;;;;;;;1.65;1.05;;;;;;;;;;4929809;28;98324;-80
2023/07/19 07:41:37;;;;;;;2.15;1.23;;;;;;;;;;4930452;28;99613;-80
2023/07/19 07:44:04;;;;;;;3.40;1.10;;;;;;;;;;4932337;28;99886;-82
2023/07/19 07:46:30;;;;;;;4.40;1.20;;;;;;;;;;4930788;28;99869;-80
2023/07/19 07:48:59;;;;;;;3.75;1.05;;;;;;;;;;4930802;28;99222;-76
2023/07/19 07:51:29;;;;;;;1.73;0.93;;;;;;;;;;4929828;28;98356;-77
2023/07/19 07:53:56;;;;;;;1.90;1.00;;;;;;;;;;4931038;28;98353;-77
2023/07/19 07:56:25;;;;;;;2.05;1.15;;;;;;;;;;4930521;28;99035;-76
2023/07/19 07:58:51;;;;;;;3.20;1.15;;;;;;;;;;4929288;28;98271;-77
2023/07/19 08:01:18;;;;;;;1.38;1.13;;;;;;;;;;4924406;28;98549;-78
2023/07/19 08:03:45;;;;;;;3.17;1.08;;;;;;;;;;4924288;28;99891;-76
2023/07/19 08:06:12;;;;;;;4.43;1.38;;;;;;;;;;4912671;28;98439;-77
2023/07/19 08:08:38;;;;;;;1.58;1.15;;;;;;;;;;4910897;28;99990;-77
2023/07/19 08:11:05;;;;;;;2.67;1.10;;;;;;;;;;4911455;28;98329;-78
2023/07/19 08:13:33;;;;;;;3.90;1.30;;;;;;;;;;4910855;28;98660;-80
2023/07/19 08:15:59;;;;;;;8.98;1.90;;;;;;;;;;4911454;28;98995;-79
2023/07/19 08:18:26;;;;;;;4.82;1.40;;;;;;;;;;4911036;28;98250;-79
2023/07/19 08:20:54;;;;;;;2.75;1.25;;;;;;;;;;4917653;28;99903;-79
2023/07/19 08:23:20;;;;;;;2.63;1.25;;;;;;;;;;4927171;28;99871;-78
2023/07/19 08:25:47;;;;;;;3.67;1.42;;;;;;;;;;4930508;28;98268;-79
2023/07/19 08:28:13;;;;;;;1.80;1.10;;;;;;;;;;4923920;28;99353;-79
2023/07/19 08:30:40;;;;;;;3.42;1.70;;;;;;;;;;4911236;28;98197;-79
2023/07/19 08:33:08;;;;;;;1.38;1.10;;;;;;;;;;4911165;28;99648;-78
2023/07/19 08:35:35;;;;;;;6.13;1.60;;;;;;;;;;4909478;28;99374;-79
2023/07/19 08:38:02;;;;;;;2.30;1.17;;;;;;;;;;4910723;28;98254;-79
2023/07/19 08:40:30;;;;;;;2.33;1.58;;;;;;;;;;4910231;28;98632;-79
2023/07/19 08:42:57;;;;;;;2.47;1.40;;;;;;;;;;4910540;28;100190;-78
2023/07/19 08:45:25;;;;;;;3.33;1.35;;;;;;;;;;4910420;28;98254;-78
2023/07/19 08:47:51;;;;;;;3.15;1.95;;;;;;;;;;4909739;28;98575;-79
2023/07/19 08:50:18;;;;;;;4.55;2.00;;;;;;;;;;4914046;28;99051;-78
2023/07/19 08:52:44;;;;;;;7.07;1.58;;;;;;;;;;4920358;28;98539;-78
2023/07/19 08:55:11;;;;;;;3.85;1.35;;;;;;;;;;4928961;28;100091;-77
2023/07/19 08:57:43;;;;;;;6.20;1.40;;;;;;;;;;4932147;28;98288;-79
2023/07/19 09:00:09;;;;;;;1.88;1.63;;;;;;;;;;4933482;28;98581;-79
2023/07/19 09:02:36;;;;;;;3.88;2.10;;;;;;;;;;4948481;28;99277;-79
2023/07/19 09:05:09;;;;;;;2.97;1.80;;;;;;;;;;4933977;28;97940;-79
2023/07/19 09:07:37;;;;;;;3.55;2.05;;;;;;;;;;4932758;28;98451;-79
2023/07/19 09:10:07;;;;;;;2.80;1.38;;;;;;;;;;4929408;28;99044;-81
2023/07/19 09:12:35;;;;;;;2.72;1.70;;;;;;;;;;4916581;28;98216;-79
2023/07/19 09:15:01;;;;;;;3.65;1.38;;;;;;;;;;4921758;28;99070;-78
2023/07/19 09:17:30;;;;;;;2.60;1.40;;;;;;;;;;4932898;28;98265;-78
2023/07/19 09:19:56;;;;;;;7.82;1.83;;;;;;;;;;4933552;28;98342;-78
2023/07/19 09:22:26;;;;;;;3.55;1.35;;;;;;;;;;4932365;28;99345;-78
2023/07/19 09:25:03;;;;;;;2.40;1.60;;;;;;;;;;4932179;28;98224;-78
2023/07/19 09:27:30;;;;;;;3.35;1.45;;;;;;;;;;4934764;28;99471;-78
2023/07/19 09:29:56;;;;;;;8.40;2.08;;;;;;;;;;4936200;28;99126;-78
2023/07/19 09:32:24;;;;;;;3.28;1.40;;;;;;;;;;4935007;28;98205;-78
2023/07/19 09:34:54;;;;;;;1.45;1.20;;;;;;;;;;4947776;28;98817;-80
2023/07/19 09:37:21;;;;;;;2.22;1.27;;;;;;;;;;4953412;28;97941;-80
2023/07/19 09:39:48;;;;;;;6.45;1.70;;;;;;;;;;4955768;28;98812;-80
2023/07/19 09:42:15;;;;;;;4.05;1.70;;;;;;;;;;4954922;28;97886;-79
2023/07/19 09:44:41;;;;;;;3.47;1.52;;;;;;;;;;4955343;28;97806;-81
2023/07/19 09:47:10;;;;;;;3.72;1.70;;;;;;;;;;4956893;28;99166;-79
2023/07/19 09:49:54;;;;;;;3.13;1.65;;;;;;;;;;4942392;28;97990;-80
2023/07/19 09:52:24;;;;;;;7.07;1.77;;;;;;;;;;4933079;28;98470;-79
2023/07/19 09:54:50;;;;;;;9.45;1.70;;;;;;;;;;4941219;28;99502;-79
2023/07/19 09:57:17;;;;;;;4.05;1.40;;;;;;;;;;4940623;28;98076;-79
2023/07/19 09:59:49;;;;;;;3.10;1.38;;;;;;;;;;4932152;28;100147;-80
2023/07/19 10:02:16;;;;;;;4.90;1.60;;;;;;;;;;4932134;28;98949;-79
2023/07/19 10:04:43;;;;;;;3.40;1.50;;;;;;;;;;4932732;28;98199;-79
2023/07/19 10:07:10;;;;;;;2.90;1.25;;;;;;;;;;4934408;28;99443;-78
2023/07/19 10:09:38;;;;;;;2.85;1.40;;;;;;;;;;4936857;28;99202;-79
2023/07/19 10:12:07;;;;;;;2.42;1.85;;;;;;;;;;4935843;28;98326;-79
2023/07/19 10:14:33;;;;;;;2.58;1.90;;;;;;;;;;4932339;28;98737;-79
2023/07/19 10:17:01;;;;;;;2.13;1.30;;;;;;;;;;4935285;28;99302;-78
2023/07/19 10:19:28;;;;;;;2.75;1.30;;;;;;;;;;4931473;28;99254;-79
2023/07/19 10:22:07;;;;;;;3.70;1.45;;;;;;;;;;4932051;28;99850;-80
2023/07/19 10:24:35;;;;;;;3.92;1.55;;;;;;;;;;4932110;28;98209;-77
2023/07/19 10:27:02;;;;;;;8.50;1.60;;;;;;;;;;4927946;28;99556;-78
2023/07/19 10:29:42;;;;;;;2.97;1.40;;;;;;;;;;4915991;28;99893;-80
2023/07/19 10:32:08;;;;;;;5.93;1.90;;;;;;;;;;4913762;28;98509;-80
2023/07/19 10:34:36;;;;;;;4.40;1.65;;;;;;;;;;4912085;28;98411;-80
2023/07/19 10:37:11;;;;;;;2.80;1.33;;;;;;;;;;4912759;28;99801;-80
2023/07/19 10:39:38;;;;;;;2.83;1.73;;;;;;;;;;4915885;28;98267;-80
2023/07/19 10:42:04;;;;;;;3.78;1.63;;;;;;;;;;4911745;28;98930;-80
2023/07/19 10:44:31;;;;;;;6.05;1.67;;;;;;;;;;4912905;28;99561;-79
2023/07/19 10:46:58;;;;;;;4.53;1.70;;;;;;;;;;4912754;28;98494;-79
2023/07/19 10:49:24;;;;;;;3.97;1.67;;;;;;;;;;4911013;28;99982;-78
2023/07/19 10:51:54;;;;;;;5.60;1.70;;;;;;;;;;4918576;28;98239;-80
2023/07/19 10:54:25;;;;;;;4.50;2.05;;;;;;;;;;4934408;28;99002;-78
2023/07/19 10:56:59;;;;;;;5.63;1.90;;;;;;;;;;4933114;28;100056;-79
2023/07/19 10:59:27;;;;;;;3.90;1.90;;;;;;;;;;4931640;28;98108;-78
2023/07/19 11:01:56;;;;;;;3.85;1.95;;;;;;;;;;4917443;28;98729;-79
2023/07/19 11:04:28;;;;;;;7.75;2.05;;;;;;;;;;4913973;28;98246;-78
2023/07/19 11:06:59;;;;;;;4.97;2.20;;;;;;;;;;4932425;28;98674;-78
2023/07/19 11:09:31;;;;;;;5.35;2.10;;;;;;;;;;4945731;28;99066;-80
2023/07/19 11:12:01;;;;;;;5.00;2.40;;;;;;;;;;4922624;28;99186;-80
2023/07/19 11:14:32;;;;;;;4.22;2.10;;;;;;;;;;4929925;28;98191;-80
2023/07/19 11:17:00;;;;;;;6.15;2.20;;;;;;;;;;4930449;28;100210;-78
2023/07/19 11:19:39;;;;;;;3.97;1.98;;;;;;;;;;4930636;28;98261;-78
2023/07/19 11:22:06;;;;;;;7.95;2.00;;;;;;;;;;4931835;28;99401;-79
2023/07/19 11:24:37;;;;;;;2.80;1.77;;;;;;;;;;4933588;28;100015;-79
2023/07/19 11:27:04;;;;;;;4.25;1.80;;;;;;;;;;4932330;28;99460;-80
2023/07/19 11:29:31;;;;;;;1.98;1.83;;;;;;;;;;4930452;28;99959;-77
2023/07/19 11:32:16;;;;;;;5.90;2.33;;;;;;;;;;4930768;28;98307;-79
2023/07/19 11:34:49;;;;;;;3.42;1.92;;;;;;;;;;4932141;28;99766;-80
2023/07/19 11:37:21;;;;;;;3.25;1.52;;;;;;;;;;4930879;28;99293;-80
2023/07/19 11:39:52;;;;;;;3.65;1.75;;;;;;;;;;4931726;28;98243;-79
2023/07/19 11:42:52;;;;;;;5.53;2.10;;;;;;;;;;4930468;28;99706;-80
2023/07/19 11:45:23;;;;;;;3.95;1.95;;;;;;;;;;4928447;28;98752;-80
2023/07/19 11:47:50;;;;;;;4.25;1.83;;;;;;;;;;4934998;28;98268;-80
2023/07/19 11:50:18;;;;;;;2.92;2.00;;;;;;;;;;4930626;28;99852;-80
2023/07/19 11:52:48;;;;;;;2.95;1.98;;;;;;;;;;4928621;28;98311;-79
2023/07/19 11:55:15;;;;;;;6.00;2.05;;;;;;;;;;4931300;28;99708;-79
2023/07/19 11:57:43;;;;;;;4.93;1.90;;;;;;;;;;4919775;28;100403;-80
2023/07/19 12:00:14;;;;;;;3.15;1.70;;;;;;;;;;4912204;28;98782;-80
2023/07/19 12:02:45;;;;;;;3.53;1.88;;;;;;;;;;4914568;28;98498;-78
2023/07/19 12:05:18;;;;;;;5.33;2.30;;;;;;;;;;4927857;28;99459;-79
2023/07/19 12:07:47;;;;;;;10.05;2.10;;;;;;;;;;4933132;28;98263;-79
2023/07/19 12:10:15;;;;;;;6.32;2.28;;;;;;;;;;4913290;28;99913;-78
2023/07/19 12:12:44;;;;;;;3.00;2.50;;;;;;;;;;4910380;28;98304;-79
2023/07/19 12:15:12;;;;;;;3.22;2.90;;;;;;;;;;4910959;28;99460;-78
2023/07/19 12:17:40;;;;;;;2.30;2.03;;;;;;;;;;4914006;28;99928;-78
2023/07/19 12:20:07;;;;;;;6.43;2.42;;;;;;;;;;4911144;28;98337;-79
2023/07/19 12:22:39;;;;;;;3.85;2.10;;;;;;;;;;4919224;28;98590;-78
2023/07/19 12:25:06;;;;;;;2.22;1.60;;;;;;;;;;4912471;28;99182;-79
2023/07/19 12:27:35;;;;;;;6.32;2.10;;;;;;;;;;4930178;28;98359;-79
2023/07/19 12:30:03;;;;;;;1.77;1.50;;;;;;;;;;4924784;28;99444;-80
2023/07/19 12:32:30;;;;;;;3.30;1.63;;;;;;;;;;4913382;28;98369;-80
2023/07/19 12:34:58;;;;;;;4.00;1.70;;;;;;;;;;4915276;28;99452;-77
2023/07/19 12:37:26;;;;;;;4.00;2.10;;;;;;;;;;4914706;28;99969;-79
2023/07/19 12:39:54;;;;;;;4.28;2.10;;;;;;;;;;4915087;28;98252;-79
2023/07/19 12:42:21;;;;;;;1.58;1.38;;;;;;;;;;4930533;28;99006;-81
2023/07/19 12:44:50;;;;;;;5.65;1.60;;;;;;;;;;4915622;28;98966;-78
2023/07/19 12:47:24;;;;;;;2.63;1.75;;;;;;;;;;4915345;28;97958;-79
2023/07/19 12:49:50;;;;;;;4.88;1.58;;;;;;;;;;4934000;28;98524;-80
2023/07/19 12:52:18;;;;;;;5.32;3.72;;;;;;;;;;4938500;28;99000;-79
2023/07/19 12:54:45;;;;;;;2.35;1.80;;;;;;;;;;4950009;28;99571;-80
2023/07/19 12:57:12;;;;;;;6.22;1.48;;;;;;;;;;4933625;28;99917;-77
2023/07/19 12:59:40;;;;;;;1.67;1.30;;;;;;;;;;4900912;28;98259;-77
2023/07/19 13:02:07;;;;;;;5.30;1.85;;;;;;;;;;4932542;28;99227;-79
2023/07/19 13:04:34;;;;;;;5.82;1.65;;;;;;;;;;4933025;28;99524;-78
2023/07/19 13:07:06;;;;;;;2.58;1.65;;;;;;;;;;4931753;28;98423;-76
2023/07/19 13:09:34;;;;;;;2.78;1.52;;;;;;;;;;4933151;28;98493;-78
2023/07/19 13:12:02;;;;;;;2.40;1.63;;;;;;;;;;4933855;28;100614;-80
2023/07/19 13:14:29;;;;;;;2.10;1.40;;;;;;;;;;4936446;28;98350;-78
2023/07/19 13:16:55;;;;;;;1.40;1.27;;;;;;;;;;4931934;28;99915;-78
2023/07/19 13:19:45;;;;;;;1.50;1.00;;;;;;;;;;4930224;28;98053;-79
2023/07/19 13:22:11;;;;;;;4.63;1.15;;;;;;;;;;4931178;28;99523;-79
2023/07/19 13:24:38;;;;;;;1.13;1.02;;;;;;;;;;4932572;28;101239;-78
2023/07/19 13:27:06;;;;;;;2.03;1.23;;;;;;;;;;4932831;28;98269;-78
2023/07/19 13:29:32;;;;;;;2.13;1.27;;;;;;;;;;4932242;28;98465;-78
2023/07/19 13:31:59;;;;;;;1.50;1.40;;;;;;;;;;4932873;28;100026;-77
2023/07/19 13:34:27;;;;;;;8.35;1.88;;;;;;;;;;4930651;28;98633;-77
2023/07/19 13:36:53;;;;;;;2.75;1.30;;;;;;;;;;4930598;28;99715;-77
2023/07/19 13:39:23;;;;;;;3.58;1.20;;;;;;;;;;4930009;28;98338;-77
2023/07/19 13:41:50;;;;;;;4.57;1.70;;;;;;;;;;4930396;28;98724;-77
2023/07/19 13:44:16;;;;;;;2.92;1.48;;;;;;;;;;4925311;28;99097;-77
2023/07/19 13:46:43;;;;;;;1.48;1.33;;;;;;;;;;4928154;28;98294;-77
2023/07/19 13:49:10;;;;;;;3.55;1.38;;;;;;;;;;4930826;28;98739;-77
2023/07/19 13:51:36;;;;;;;7.40;1.30;;;;;;;;;;4926733;28;99984;-76
2023/07/19 13:54:03;;;;;;;1.38;1.20;;;;;;;;;;4926730;28;98268;-77
2023/07/19 13:56:29;;;;;;;2.13;1.08;;;;;;;;;;4930667;28;99471;-77
2023/07/19 13:58:56;;;;;;;5.53;1.25;;;;;;;;;;4926101;28;98247;-79
2023/07/19 14:01:22;;;;;;;1.55;1.00;;;;;;;;;;4932298;28;99306;-79
2023/07/19 14:03:49;;;;;;;3.42;1.30;;;;;;;;;;4932598;28;99528;-79
2023/07/19 14:06:17;;;;;;;1.65;1.02;;;;;;;;;;4930882;28;98847;-79
2023/07/19 14:08:44;;;;;;;1.30;0.88;;;;;;;;;;4932282;28;99367;-80
2023/07/19 14:11:10;;;;;;;1.00;1.00;;;;;;;;;;4931462;28;99952;-79
2023/07/19 14:13:37;;;;;;;1.42;0.85;;;;;;;;;;4932918;28;98127;-80
2023/07/19 14:16:05;;;;;;;1.20;1.10;;;;;;;;;;4935166;28;98614;-80
2023/07/19 14:18:31;;;;;;;0.80;0.80;;;;;;;;;;4927029;28;99900;-80
2023/07/19 14:20:57;;;;;;;1.30;0.80;;;;;;;;;;4913528;28;99574;-80
2023/07/19 14:23:25;;;;;;;0.95;0.93;;;;;;;;;;4912488;28;99937;-79
2023/07/19 14:25:51;;;;;;;1.10;1.00;;;;;;;;;;4912411;28;98443;-80
2023/07/19 14:28:17;;;;;;;1.67;0.82;;;;;;;;;;4925490;28;99485;-80
2023/07/19 14:30:45;;;;;;;0.95;0.80;;;;;;;;;;4926134;28;100331;-80
2023/07/19 14:33:11;;;;;;;2.72;0.82;;;;;;;;;;4932387;28;98712;-80
2023/07/19 14:35:38;;;;;;;4.65;1.20;;;;;;;;;;4931788;28;98468;-79
2023/07/19 14:38:04;;;;;;;1.02;0.93;;;;;;;;;;4932581;28;98904;-80
2023/07/19 14:40:31;;;;;;;2.17;1.08;;;;;;;;;;4935195;28;98377;-79
2023/07/19 14:42:57;;;;;;;1.10;0.90;;;;;;;;;;4931937;28;99062;-80